< < Back
Terminal Aerodrome Forecast


Current Version              Previous Versions:   1  2  3  4  5  6  7  8  9  

Terminal Aerodrome Forecast

374
FTUS42 KFFC 192321
TAFFTY
TAF
KFTY 192321Z 2000/2024 32004KT P6SM BKN120
     FM200200 35003KT P6SM VCSH OVC070
     FM200500 01003KT 6SM -RA BR OVC050
     FM201100 03003KT 6SM -RA BR OVC025
     FM201400 05005KT P6SM VCSH OVC028
     FM202000 08005KT P6SM BKN035=



Latest METAR

810
SAUS70 KWBC 200400 RRQ
MTRFTY
METAR KFTY 200453Z 00000KT 10SM -RA BKN060 OVC075 06/03 A3016 RMK AO2
SLP214 P0002 T00560028 401220022


USA.gov is the U.S. government's official web portal to all federal, state and local government web resources and services.